sensor_id;sensor_type;location;lat;lon;timestamp;temperature;humidity
27534;DHT22;14973;51.460;7.008;2022-09-27T00:02:15;10.80;99.90
27534;DHT22;14973;51.460;7.008;2022-09-27T00:04:41;10.70;99.90
27534;DHT22;14973;51.460;7.008;2022-09-27T00:07:06;10.70;99.90
27534;DHT22;14973;51.460;7.008;2022-09-27T00:09:32;10.70;99.90
27534;DHT22;14973;51.460;7.008;2022-09-27T00:11:58;10.70;99.90
27534;DHT22;14973;51.460;7.008;2022-09-27T00:14:23;10.60;99.90
27534;DHT22;14973;51.460;7.008;2022-09-27T00:16:49;10.60;99.90
27534;DHT22;14973;51.460;7.008;2022-09-27T00:19:19;10.50;99.90
27534;DHT22;14973;51.460;7.008;2022-09-27T00:21:46;10.50;99.90
27534;DHT22;14973;51.460;7.008;2022-09-27T00:24:14;10.50;99.90
27534;DHT22;14973;51.460;7.008;2022-09-27T00:26:39;10.50;99.90
27534;DHT22;14973;51.460;7.008;2022-09-27T00:29:05;10.50;99.90
27534;DHT22;14973;51.460;7.008;2022-09-27T00:31:31;10.40;99.90
27534;DHT22;14973;51.460;7.008;2022-09-27T00:34:01;10.40;99.90
27534;DHT22;14973;51.460;7.008;2022-09-27T00:36:27;10.40;99.90
27534;DHT22;14973;51.460;7.008;2022-09-27T00:38:53;10.30;99.90
27534;DHT22;14973;51.460;7.008;2022-09-27T00:41:31;10.30;99.90
27534;DHT22;14973;51.460;7.008;2022-09-27T00:44:00;10.30;99.90
27534;DHT22;14973;51.460;7.008;2022-09-27T00:47:08;10.40;99.90
27534;DHT22;14973;51.460;7.008;2022-09-27T00:49:18;10.40;99.90
27534;DHT22;14973;51.460;7.008;2022-09-27T00:51:48;10.40;99.90
27534;DHT22;14973;51.460;7.008;2022-09-27T00:54:16;10.40;99.90
27534;DHT22;14973;51.460;7.008;2022-09-27T00:56:43;10.40;99.90
27534;DHT22;14973;51.460;7.008;2022-09-27T01:01:40;10.50;99.90
27534;DHT22;14973;51.460;7.008;2022-09-27T01:04:11;10.50;99.90
27534;DHT22;14973;51.460;7.008;2022-09-27T01:06:38;10.50;99.90
27534;DHT22;14973;51.460;7.008;2022-09-27T01:09:05;10.60;99.90
27534;DHT22;14973;51.460;7.008;2022-09-27T01:11:47;10.50;99.90
27534;DHT22;14973;51.460;7.008;2022-09-27T01:23:11;10.50;99.90
27534;DHT22;14973;51.460;7.008;2022-09-27T04:51:36;9.60;99.90
27534;DHT22;14973;51.460;7.008;2022-09-27T04:54:02;9.50;99.90
27534;DHT22;14973;51.460;7.008;2022-09-27T04:56:27;9.50;99.90
27534;DHT22;14973;51.460;7.008;2022-09-27T04:58:53;9.50;99.90
27534;DHT22;14973;51.460;7.008;2022-09-27T05:01:18;9.50;99.90
27534;DHT22;14973;51.460;7.008;2022-09-27T05:03:44;9.50;99.90
27534;DHT22;14973;51.460;7.008;2022-09-27T05:06:09;9.50;99.90
27534;DHT22;14973;51.460;7.008;2022-09-27T05:08:35;9.50;99.90
27534;DHT22;14973;51.460;7.008;2022-09-27T05:11:01;9.40;99.90
27534;DHT22;14973;51.460;7.008;2022-09-27T05:13:27;9.50;99.90
27534;DHT22;14973;51.460;7.008;2022-09-27T05:15:52;9.50;99.90
27534;DHT22;14973;51.460;7.008;2022-09-27T05:18:18;9.50;99.90
27534;DHT22;14973;51.460;7.008;2022-09-27T05:20:44;9.50;99.90
27534;DHT22;14973;51.460;7.008;2022-09-27T05:23:10;9.50;99.90
27534;DHT22;14973;51.460;7.008;2022-09-27T05:25:35;9.50;99.90
27534;DHT22;14973;51.460;7.008;2022-09-27T05:28:01;9.60;99.90
27534;DHT22;14973;51.460;7.008;2022-09-27T05:30:27;9.60;99.90
27534;DHT22;14973;51.460;7.008;2022-09-27T05:32:53;9.60;99.90
27534;DHT22;14973;51.460;7.008;2022-09-27T05:35:19;9.60;99.90
27534;DHT22;14973;51.460;7.008;2022-09-27T05:37:56;9.60;99.90
27534;DHT22;14973;51.460;7.008;2022-09-27T05:40:23;9.50;99.90
27534;DHT22;14973;51.460;7.008;2022-09-27T05:42:53;9.50;99.90
27534;DHT22;14973;51.460;7.008;2022-09-27T05:45:20;9.50;99.90
27534;DHT22;14973;51.460;7.008;2022-09-27T05:47:57;9.50;99.90
27534;DHT22;14973;51.460;7.008;2022-09-27T05:50:25;9.50;99.90
27534;DHT22;14973;51.460;7.008;2022-09-27T05:52:51;9.60;99.90
27534;DHT22;14973;51.460;7.008;2022-09-27T05:55:17;9.60;99.90
27534;DHT22;14973;51.460;7.008;2022-09-27T05:57:53;9.60;99.90
27534;DHT22;14973;51.460;7.008;2022-09-27T06:00:19;9.70;99.90
27534;DHT22;14973;51.460;7.008;2022-09-27T06:02:58;9.80;99.90
27534;DHT22;14973;51.460;7.008;2022-09-27T06:05:26;9.80;99.90
27534;DHT22;14973;51.460;7.008;2022-09-27T06:08:00;9.80;99.90
27534;DHT22;14973;51.460;7.008;2022-09-27T06:10:26;9.90;99.90
27534;DHT22;14973;51.460;7.008;2022-09-27T06:12:53;10.00;99.90
27534;DHT22;14973;51.460;7.008;2022-09-27T06:15:19;10.00;99.90
27534;DHT22;14973;51.460;7.008;2022-09-27T06:17:45;10.00;99.90
27534;DHT22;14973;51.460;7.008;2022-09-27T06:20:11;10.10;99.90
27534;DHT22;14973;51.460;7.008;2022-09-27T06:22:37;10.00;99.90
27534;DHT22;14973;51.460;7.008;2022-09-27T06:25:03;10.00;99.90
27534;DHT22;14973;51.460;7.008;2022-09-27T06:27:30;10.10;99.90
27534;DHT22;14973;51.460;7.008;2022-09-27T06:29:56;10.10;99.90
27534;DHT22;14973;51.460;7.008;2022-09-27T06:32:21;10.00;99.90
27534;DHT22;14973;51.460;7.008;2022-09-27T06:34:47;10.10;99.90
27534;DHT22;14973;51.460;7.008;2022-09-27T06:37:13;10.20;99.90
27534;DHT22;14973;51.460;7.008;2022-09-27T06:39:39;10.20;99.90
27534;DHT22;14973;51.460;7.008;2022-09-27T06:42:05;10.10;99.90
27534;DHT22;14973;51.460;7.008;2022-09-27T06:44:31;10.20;99.90
27534;DHT22;14973;51.460;7.008;2022-09-27T06:46:57;10.20;99.90
27534;DHT22;14973;51.460;7.008;2022-09-27T06:49:22;10.30;99.90
27534;DHT22;14973;51.460;7.008;2022-09-27T06:51:50;10.30;99.90
27534;DHT22;14973;51.460;7.008;2022-09-27T06:54:17;10.20;99.90
27534;DHT22;14973;51.460;7.008;2022-09-27T06:56:45;10.10;99.90
27534;DHT22;14973;51.460;7.008;2022-09-27T06:59:11;10.10;99.90
27534;DHT22;14973;51.460;7.008;2022-09-27T07:01:55;10.20;99.90
27534;DHT22;14973;51.460;7.008;2022-09-27T07:04:21;10.20;99.90
27534;DHT22;14973;51.460;7.008;2022-09-27T07:06:46;10.30;99.90
27534;DHT22;14973;51.460;7.008;2022-09-27T07:09:12;10.30;99.90
27534;DHT22;14973;51.460;7.008;2022-09-27T07:11:39;10.40;99.90
27534;DHT22;14973;51.460;7.008;2022-09-27T07:14:04;10.50;99.90
27534;DHT22;14973;51.460;7.008;2022-09-27T07:16:30;10.60;99.90
27534;DHT22;14973;51.460;7.008;2022-09-27T07:18:59;10.60;99.90
27534;DHT22;14973;51.460;7.008;2022-09-27T07:21:24;10.70;99.90
27534;DHT22;14973;51.460;7.008;2022-09-27T07:23:51;10.80;99.90
27534;DHT22;14973;51.460;7.008;2022-09-27T07:26:16;10.90;99.90
27534;DHT22;14973;51.460;7.008;2022-09-27T07:28:42;11.00;99.90
27534;DHT22;14973;51.460;7.008;2022-09-27T07:31:09;11.10;99.90
27534;DHT22;14973;51.460;7.008;2022-09-27T07:33:35;11.30;99.90
27534;DHT22;14973;51.460;7.008;2022-09-27T07:36:08;11.40;99.90
27534;DHT22;14973;51.460;7.008;2022-09-27T07:38:35;11.60;99.90
27534;DHT22;14973;51.460;7.008;2022-09-27T07:41:08;11.70;99.90
27534;DHT22;14973;51.460;7.008;2022-09-27T07:43:34;11.90;99.90
27534;DHT22;14973;51.460;7.008;2022-09-27T07:46:00;12.00;99.90
27534;DHT22;14973;51.460;7.008;2022-09-27T07:48:25;12.00;99.90
27534;DHT22;14973;51.460;7.008;2022-09-27T07:50:52;12.30;99.90
27534;DHT22;14973;51.460;7.008;2022-09-27T07:53:17;12.30;99.90
27534;DHT22;14973;51.460;7.008;2022-09-27T07:55:43;12.20;99.90
27534;DHT22;14973;51.460;7.008;2022-09-27T07:58:10;12.10;99.90
27534;DHT22;14973;51.460;7.008;2022-09-27T08:00:37;12.20;99.90
27534;DHT22;14973;51.460;7.008;2022-09-27T08:03:14;12.30;99.90
27534;DHT22;14973;51.460;7.008;2022-09-27T08:05:44;12.50;99.90
27534;DHT22;14973;51.460;7.008;2022-09-27T08:08:12;12.50;99.90
27534;DHT22;14973;51.460;7.008;2022-09-27T08:10:38;12.50;99.90
27534;DHT22;14973;51.460;7.008;2022-09-27T08:13:08;12.30;99.90
27534;DHT22;14973;51.460;7.008;2022-09-27T08:15:35;12.30;99.90
27534;DHT22;14973;51.460;7.008;2022-09-27T08:18:01;12.30;99.90
27534;DHT22;14973;51.460;7.008;2022-09-27T08:20:26;12.20;99.90
27534;DHT22;14973;51.460;7.008;2022-09-27T08:22:52;11.90;99.90
27534;DHT22;14973;51.460;7.008;2022-09-27T08:25:18;11.90;99.90
27534;DHT22;14973;51.460;7.008;2022-09-27T08:27:43;12.00;99.90
27534;DHT22;14973;51.460;7.008;2022-09-27T08:30:18;12.10;99.90
27534;DHT22;14973;51.460;7.008;2022-09-27T08:32:44;12.60;99.90
27534;DHT22;14973;51.460;7.008;2022-09-27T08:35:09;12.90;99.90
27534;DHT22;14973;51.460;7.008;2022-09-27T08:37:36;13.10;99.90
27534;DHT22;14973;51.460;7.008;2022-09-27T08:40:02;13.30;99.90
27534;DHT22;14973;51.460;7.008;2022-09-27T08:42:49;13.00;99.90
27534;DHT22;14973;51.460;7.008;2022-09-27T08:45:30;13.00;99.90
27534;DHT22;14973;51.460;7.008;2022-09-27T08:48:01;13.10;99.90
27534;DHT22;14973;51.460;7.008;2022-09-27T08:50:34;13.10;99.90
27534;DHT22;14973;51.460;7.008;2022-09-27T08:55:44;13.20;99.90
27534;DHT22;14973;51.460;7.008;2022-09-27T08:58:29;13.20;99.90
27534;DHT22;14973;51.460;7.008;2022-09-27T09:00:57;13.00;99.90
27534;DHT22;14973;51.460;7.008;2022-09-27T09:03:26;12.70;99.90
27534;DHT22;14973;51.460;7.008;2022-09-27T09:06:10;12.60;99.90
27534;DHT22;14973;51.460;7.008;2022-09-27T09:17:51;12.10;99.90
27534;DHT22;14973;51.460;7.008;2022-09-27T09:31:41;11.90;99.90
27534;DHT22;14973;51.460;7.008;2022-09-27T09:34:19;11.80;99.90
27534;DHT22;14973;51.460;7.008;2022-09-27T09:39:27;12.00;99.90
27534;DHT22;14973;51.460;7.008;2022-09-27T09:42:31;12.00;99.90
27534;DHT22;14973;51.460;7.008;2022-09-27T09:45:19;11.90;99.90
27534;DHT22;14973;51.460;7.008;2022-09-27T09:48:02;11.70;99.90
27534;DHT22;14973;51.460;7.008;2022-09-27T09:50:40;11.90;99.90
27534;DHT22;14973;51.460;7.008;2022-09-27T09:53:20;12.00;99.90
27534;DHT22;14973;51.460;7.008;2022-09-27T09:56:03;12.10;99.90
27534;DHT22;14973;51.460;7.008;2022-09-27T09:58:56;12.20;99.90
27534;DHT22;14973;51.460;7.008;2022-09-27T10:01:25;12.30;99.90
27534;DHT22;14973;51.460;7.008;2022-09-27T10:03:54;12.40;99.90
27534;DHT22;14973;51.460;7.008;2022-09-27T10:06:20;12.30;99.90
27534;DHT22;14973;51.460;7.008;2022-09-27T10:08:47;12.30;99.90
27534;DHT22;14973;51.460;7.008;2022-09-27T10:13:47;12.40;99.90
27534;DHT22;14973;51.460;7.008;2022-09-27T10:16:16;12.50;99.90
27534;DHT22;14973;51.460;7.008;2022-09-27T10:18:43;12.60;99.90
27534;DHT22;14973;51.460;7.008;2022-09-27T10:21:14;12.50;99.90
27534;DHT22;14973;51.460;7.008;2022-09-27T10:24:04;12.50;99.90
27534;DHT22;14973;51.460;7.008;2022-09-27T10:26:31;12.50;99.90
27534;DHT22;14973;51.460;7.008;2022-09-27T10:28:59;12.60;99.90
27534;DHT22;14973;51.460;7.008;2022-09-27T10:31:38;12.70;99.90
27534;DHT22;14973;51.460;7.008;2022-09-27T10:36:42;13.30;99.90
27534;DHT22;14973;51.460;7.008;2022-09-27T10:39:20;13.40;99.90
27534;DHT22;14973;51.460;7.008;2022-09-27T10:41:48;13.70;99.90
27534;DHT22;14973;51.460;7.008;2022-09-27T10:46:51;14.50;99.90
27534;DHT22;14973;51.460;7.008;2022-09-27T10:51:58;14.90;99.90
27534;DHT22;14973;51.460;7.008;2022-09-27T10:54:36;15.10;99.90
27534;DHT22;14973;51.460;7.008;2022-09-27T10:59:44;15.60;99.90
27534;DHT22;14973;51.460;7.008;2022-09-27T11:02:28;15.60;99.90
27534;DHT22;14973;51.460;7.008;2022-09-27T11:05:29;15.70;99.90
27534;DHT22;14973;51.460;7.008;2022-09-27T11:08:00;15.60;99.90
27534;DHT22;14973;51.460;7.008;2022-09-27T11:10:32;15.30;99.90
27534;DHT22;14973;51.460;7.008;2022-09-27T11:13:13;15.10;99.90
27534;DHT22;14973;51.460;7.008;2022-09-27T11:18:42;15.00;99.90
27534;DHT22;14973;51.460;7.008;2022-09-27T11:29:39;14.60;99.90
27534;DHT22;14973;51.460;7.008;2022-09-27T11:34:57;14.50;99.90
27534;DHT22;14973;51.460;7.008;2022-09-27T11:40:26;14.10;99.90
27534;DHT22;14973;51.460;7.008;2022-09-27T11:56:08;13.70;99.90
27534;DHT22;14973;51.460;7.008;2022-09-27T12:04:45;14.60;99.90
27534;DHT22;14973;51.460;7.008;2022-09-27T12:07:27;14.90;99.90
27534;DHT22;14973;51.460;7.008;2022-09-27T12:10:01;15.10;99.90
27534;DHT22;14973;51.460;7.008;2022-09-27T12:12:31;15.10;99.90
27534;DHT22;14973;51.460;7.008;2022-09-27T12:15:02;14.30;99.90
27534;DHT22;14973;51.460;7.008;2022-09-27T12:17:34;13.80;99.90
27534;DHT22;14973;51.460;7.008;2022-09-27T12:20:08;13.40;99.90
27534;DHT22;14973;51.460;7.008;2022-09-27T12:22:44;13.00;99.90
27534;DHT22;14973;51.460;7.008;2022-09-27T12:25:16;13.00;99.90
27534;DHT22;14973;51.460;7.008;2022-09-27T12:30:23;12.60;99.90
27534;DHT22;14973;51.460;7.008;2022-09-27T12:32:57;12.50;99.90
27534;DHT22;14973;51.460;7.008;2022-09-27T12:35:31;12.30;99.90
27534;DHT22;14973;51.460;7.008;2022-09-27T12:38:22;12.40;99.90
27534;DHT22;14973;51.460;7.008;2022-09-27T12:40:53;12.00;99.90
27534;DHT22;14973;51.460;7.008;2022-09-27T12:43:21;12.00;99.90
27534;DHT22;14973;51.460;7.008;2022-09-27T12:49:09;12.10;99.90
27534;DHT22;14973;51.460;7.008;2022-09-27T12:51:40;12.10;99.90
27534;DHT22;14973;51.460;7.008;2022-09-27T12:56:59;12.60;99.90
27534;DHT22;14973;51.460;7.008;2022-09-27T13:11:28;12.80;99.90
27534;DHT22;14973;51.460;7.008;2022-09-27T13:13:30;12.80;99.90
27534;DHT22;14973;51.460;7.008;2022-09-27T13:15:59;12.80;99.90
27534;DHT22;14973;51.460;7.008;2022-09-27T13:18:50;12.90;99.90
27534;DHT22;14973;51.460;7.008;2022-09-27T13:26:54;13.20;99.90
27534;DHT22;14973;51.460;7.008;2022-09-27T13:29:26;13.20;99.90
27534;DHT22;14973;51.460;7.008;2022-09-27T13:45:26;12.70;99.90
27534;DHT22;14973;51.460;7.008;2022-09-27T13:47:54;12.90;99.90
27534;DHT22;14973;51.460;7.008;2022-09-27T13:50:32;13.00;99.90
27534;DHT22;14973;51.460;7.008;2022-09-27T13:53:06;13.20;99.90
27534;DHT22;14973;51.460;7.008;2022-09-27T13:55:48;13.30;99.90
27534;DHT22;14973;51.460;7.008;2022-09-27T13:58:31;13.40;99.90
27534;DHT22;14973;51.460;7.008;2022-09-27T14:01:03;13.40;99.90
27534;DHT22;14973;51.460;7.008;2022-09-27T14:03:54;13.30;99.90
27534;DHT22;14973;51.460;7.008;2022-09-27T14:06:31;13.50;99.90
27534;DHT22;14973;51.460;7.008;2022-09-27T14:09:02;13.70;99.90
27534;DHT22;14973;51.460;7.008;2022-09-27T14:11:39;13.70;99.90
27534;DHT22;14973;51.460;7.008;2022-09-27T14:14:16;13.90;99.90
27534;DHT22;14973;51.460;7.008;2022-09-27T14:16:43;14.00;99.90
27534;DHT22;14973;51.460;7.008;2022-09-27T14:19:16;14.30;99.90
27534;DHT22;14973;51.460;7.008;2022-09-27T14:21:44;14.20;99.90
27534;DHT22;14973;51.460;7.008;2022-09-27T14:30:19;14.30;99.90
27534;DHT22;14973;51.460;7.008;2022-09-27T14:32:50;14.00;99.90
27534;DHT22;14973;51.460;7.008;2022-09-27T14:35:17;13.80;99.90
27534;DHT22;14973;51.460;7.008;2022-09-27T14:38:03;13.70;99.90
27534;DHT22;14973;51.460;7.008;2022-09-27T14:40:30;13.50;99.90
27534;DHT22;14973;51.460;7.008;2022-09-27T14:42:59;13.60;99.90
27534;DHT22;14973;51.460;7.008;2022-09-27T14:45:37;13.60;99.90
27534;DHT22;14973;51.460;7.008;2022-09-27T14:48:28;13.40;99.90
27534;DHT22;14973;51.460;7.008;2022-09-27T14:51:14;13.20;99.90
27534;DHT22;14973;51.460;7.008;2022-09-27T14:53:48;12.90;99.90
27534;DHT22;14973;51.460;7.008;2022-09-27T14:56:17;12.90;99.90
27534;DHT22;14973;51.460;7.008;2022-09-27T14:58:44;12.90;99.90
27534;DHT22;14973;51.460;7.008;2022-09-27T15:01:18;13.00;99.90
27534;DHT22;14973;51.460;7.008;2022-09-27T15:03:46;13.00;99.90
27534;DHT22;14973;51.460;7.008;2022-09-27T15:06:14;13.00;99.90
27534;DHT22;14973;51.460;7.008;2022-09-27T15:08:39;12.90;99.90
27534;DHT22;14973;51.460;7.008;2022-09-27T15:11:06;12.90;99.90
27534;DHT22;14973;51.460;7.008;2022-09-27T15:13:33;12.70;99.90
27534;DHT22;14973;51.460;7.008;2022-09-27T15:16:09;12.80;99.90
27534;DHT22;14973;51.460;7.008;2022-09-27T15:18:42;12.90;99.90
27534;DHT22;14973;51.460;7.008;2022-09-27T15:21:13;12.80;99.90
27534;DHT22;14973;51.460;7.008;2022-09-27T15:23:44;12.80;99.90
27534;DHT22;14973;51.460;7.008;2022-09-27T15:26:23;12.90;99.90
27534;DHT22;14973;51.460;7.008;2022-09-27T15:28:50;13.00;99.90
27534;DHT22;14973;51.460;7.008;2022-09-27T15:31:17;13.20;99.90
27534;DHT22;14973;51.460;7.008;2022-09-27T15:33:54;13.30;99.90
27534;DHT22;14973;51.460;7.008;2022-09-27T15:39:08;13.40;99.90
27534;DHT22;14973;51.460;7.008;2022-09-27T15:41:59;13.40;99.90
27534;DHT22;14973;51.460;7.008;2022-09-27T15:44:48;13.30;99.90
27534;DHT22;14973;51.460;7.008;2022-09-27T15:47:38;13.30;99.90
27534;DHT22;14973;51.460;7.008;2022-09-27T15:52:43;13.20;99.90
27534;DHT22;14973;51.460;7.008;2022-09-27T15:55:15;13.20;99.90
27534;DHT22;14973;51.460;7.008;2022-09-27T15:57:43;13.10;99.90
27534;DHT22;14973;51.460;7.008;2022-09-27T16:00:13;13.10;99.90
27534;DHT22;14973;51.460;7.008;2022-09-27T16:02:40;13.10;99.90
27534;DHT22;14973;51.460;7.008;2022-09-27T16:05:06;13.00;99.90
27534;DHT22;14973;51.460;7.008;2022-09-27T16:07:32;13.00;99.90
27534;DHT22;14973;51.460;7.008;2022-09-27T16:09:57;12.90;99.90
27534;DHT22;14973;51.460;7.008;2022-09-27T16:12:23;12.90;99.90
27534;DHT22;14973;51.460;7.008;2022-09-27T16:14:49;12.80;99.90
27534;DHT22;14973;51.460;7.008;2022-09-27T16:17:15;12.80;99.90
27534;DHT22;14973;51.460;7.008;2022-09-27T16:19:40;12.70;99.90
27534;DHT22;14973;51.460;7.008;2022-09-27T16:22:06;12.50;99.90
27534;DHT22;14973;51.460;7.008;2022-09-27T16:24:32;12.30;99.90
27534;DHT22;14973;51.460;7.008;2022-09-27T16:26:58;12.10;99.90
27534;DHT22;14973;51.460;7.008;2022-09-27T16:29:24;12.10;99.90
27534;DHT22;14973;51.460;7.008;2022-09-27T16:31:49;11.90;99.90
27534;DHT22;14973;51.460;7.008;2022-09-27T16:34:15;11.80;99.90
27534;DHT22;14973;51.460;7.008;2022-09-27T16:36:41;11.70;99.90
27534;DHT22;14973;51.460;7.008;2022-09-27T16:39:10;11.60;99.90
27534;DHT22;14973;51.460;7.008;2022-09-27T16:41:37;11.60;99.90
27534;DHT22;14973;51.460;7.008;2022-09-27T16:44:13;11.50;99.90
27534;DHT22;14973;51.460;7.008;2022-09-27T16:46:42;11.30;99.90
27534;DHT22;14973;51.460;7.008;2022-09-27T16:49:10;11.20;99.90
27534;DHT22;14973;51.460;7.008;2022-09-27T16:51:57;11.10;99.90
27534;DHT22;14973;51.460;7.008;2022-09-27T16:54:27;11.00;99.90
27534;DHT22;14973;51.460;7.008;2022-09-27T16:56:54;10.80;99.90
27534;DHT22;14973;51.460;7.008;2022-09-27T16:59:20;10.70;99.90
27534;DHT22;14973;51.460;7.008;2022-09-27T17:01:49;10.70;99.90
27534;DHT22;14973;51.460;7.008;2022-09-27T17:04:15;10.50;99.90
27534;DHT22;14973;51.460;7.008;2022-09-27T17:06:40;10.50;99.90
27534;DHT22;14973;51.460;7.008;2022-09-27T17:09:07;10.50;99.90
27534;DHT22;14973;51.460;7.008;2022-09-27T17:11:33;10.40;99.90
27534;DHT22;14973;51.460;7.008;2022-09-27T17:13:59;10.40;99.90
27534;DHT22;14973;51.460;7.008;2022-09-27T17:16:25;10.40;99.90
27534;DHT22;14973;51.460;7.008;2022-09-27T17:18:52;10.40;99.90
27534;DHT22;14973;51.460;7.008;2022-09-27T17:21:18;10.30;99.90
27534;DHT22;14973;51.460;7.008;2022-09-27T17:23:44;10.30;99.90
27534;DHT22;14973;51.460;7.008;2022-09-27T17:26:18;10.30;99.90
27534;DHT22;14973;51.460;7.008;2022-09-27T17:28:45;10.30;99.90
27534;DHT22;14973;51.460;7.008;2022-09-27T17:31:12;10.30;99.90
27534;DHT22;14973;51.460;7.008;2022-09-27T17:33:42;10.30;99.90
27534;DHT22;14973;51.460;7.008;2022-09-27T17:36:20;10.30;99.90
27534;DHT22;14973;51.460;7.008;2022-09-27T17:38:47;10.30;99.90
27534;DHT22;14973;51.460;7.008;2022-09-27T17:41:16;10.20;99.90
27534;DHT22;14973;51.460;7.008;2022-09-27T17:43:43;10.10;99.90
27534;DHT22;14973;51.460;7.008;2022-09-27T17:46:16;10.20;99.90
27534;DHT22;14973;51.460;7.008;2022-09-27T17:48:42;10.10;99.90
27534;DHT22;14973;51.460;7.008;2022-09-27T17:51:26;10.10;99.90
27534;DHT22;14973;51.460;7.008;2022-09-27T17:53:52;10.10;99.90
27534;DHT22;14973;51.460;7.008;2022-09-27T17:56:17;10.00;99.90
27534;DHT22;14973;51.460;7.008;2022-09-27T17:58:47;10.00;99.90
27534;DHT22;14973;51.460;7.008;2022-09-27T18:01:14;10.00;99.90
27534;DHT22;14973;51.460;7.008;2022-09-27T18:03:40;10.00;99.90
27534;DHT22;14973;51.460;7.008;2022-09-27T18:06:07;10.00;99.90
27534;DHT22;14973;51.460;7.008;2022-09-27T18:08:33;9.90;99.90
27534;DHT22;14973;51.460;7.008;2022-09-27T18:11:05;9.90;99.90
27534;DHT22;14973;51.460;7.008;2022-09-27T18:13:31;9.90;99.90
27534;DHT22;14973;51.460;7.008;2022-09-27T18:16:03;9.90;99.90
27534;DHT22;14973;51.460;7.008;2022-09-27T18:18:30;9.90;99.90
27534;DHT22;14973;51.460;7.008;2022-09-27T18:21:00;9.90;99.90
27534;DHT22;14973;51.460;7.008;2022-09-27T18:23:29;10.00;99.90
27534;DHT22;14973;51.460;7.008;2022-09-27T18:25:54;9.90;99.90
27534;DHT22;14973;51.460;7.008;2022-09-27T18:28:26;9.90;99.90
27534;DHT22;14973;51.460;7.008;2022-09-27T18:30:53;9.90;99.90
27534;DHT22;14973;51.460;7.008;2022-09-27T18:33:19;9.90;99.90
27534;DHT22;14973;51.460;7.008;2022-09-27T18:35:45;10.00;99.90
27534;DHT22;14973;51.460;7.008;2022-09-27T18:38:10;10.00;99.90
27534;DHT22;14973;51.460;7.008;2022-09-27T18:40:36;10.00;99.90
27534;DHT22;14973;51.460;7.008;2022-09-27T18:43:01;10.00;99.90
27534;DHT22;14973;51.460;7.008;2022-09-27T18:45:27;9.90;99.90
27534;DHT22;14973;51.460;7.008;2022-09-27T18:47:53;10.00;99.90
27534;DHT22;14973;51.460;7.008;2022-09-27T18:50:19;9.90;99.90
27534;DHT22;14973;51.460;7.008;2022-09-27T18:52:44;9.90;99.90
27534;DHT22;14973;51.460;7.008;2022-09-27T18:55:10;9.90;99.90
27534;DHT22;14973;51.460;7.008;2022-09-27T18:57:35;9.90;99.90
27534;DHT22;14973;51.460;7.008;2022-09-27T19:00:03;9.90;99.90
27534;DHT22;14973;51.460;7.008;2022-09-27T19:02:29;9.80;99.90
27534;DHT22;14973;51.460;7.008;2022-09-27T19:04:56;9.80;99.90
27534;DHT22;14973;51.460;7.008;2022-09-27T19:07:22;9.80;99.90
27534;DHT22;14973;51.460;7.008;2022-09-27T19:09:47;9.80;99.90
27534;DHT22;14973;51.460;7.008;2022-09-27T19:12:13;9.70;99.90
27534;DHT22;14973;51.460;7.008;2022-09-27T19:14:39;9.80;99.90
27534;DHT22;14973;51.460;7.008;2022-09-27T19:17:04;9.70;99.90
27534;DHT22;14973;51.460;7.008;2022-09-27T19:19:30;9.70;99.90
27534;DHT22;14973;51.460;7.008;2022-09-27T19:21:55;9.70;99.90
27534;DHT22;14973;51.460;7.008;2022-09-27T19:24:21;9.70;99.90
27534;DHT22;14973;51.460;7.008;2022-09-27T19:26:47;9.60;99.90
27534;DHT22;14973;51.460;7.008;2022-09-27T19:29:14;9.70;99.90
27534;DHT22;14973;51.460;7.008;2022-09-27T19:31:40;9.70;99.90
27534;DHT22;14973;51.460;7.008;2022-09-27T19:34:06;9.70;99.90
27534;DHT22;14973;51.460;7.008;2022-09-27T19:36:31;9.70;99.90
27534;DHT22;14973;51.460;7.008;2022-09-27T19:38:57;9.80;99.90
27534;DHT22;14973;51.460;7.008;2022-09-27T19:41:24;9.80;99.90
27534;DHT22;14973;51.460;7.008;2022-09-27T19:43:53;9.70;99.90
27534;DHT22;14973;51.460;7.008;2022-09-27T19:46:20;9.70;99.90
27534;DHT22;14973;51.460;7.008;2022-09-27T19:48:47;9.80;99.90
27534;DHT22;14973;51.460;7.008;2022-09-27T19:51:24;9.70;99.90
27534;DHT22;14973;51.460;7.008;2022-09-27T19:53:51;9.70;99.90
27534;DHT22;14973;51.460;7.008;2022-09-27T19:56:17;9.70;99.90
27534;DHT22;14973;51.460;7.008;2022-09-27T19:58:43;9.70;99.90
27534;DHT22;14973;51.460;7.008;2022-09-27T20:01:11;9.80;99.90
27534;DHT22;14973;51.460;7.008;2022-09-27T20:03:40;9.80;99.90
27534;DHT22;14973;51.460;7.008;2022-09-27T20:06:07;9.80;99.90
27534;DHT22;14973;51.460;7.008;2022-09-27T20:08:33;9.80;99.90
27534;DHT22;14973;51.460;7.008;2022-09-27T20:11:01;9.80;99.90
27534;DHT22;14973;51.460;7.008;2022-09-27T20:13:28;9.70;99.90
27534;DHT22;14973;51.460;7.008;2022-09-27T20:16:07;9.70;99.90
27534;DHT22;14973;51.460;7.008;2022-09-27T20:18:37;9.70;99.90
27534;DHT22;14973;51.460;7.008;2022-09-27T20:21:03;9.70;99.90
27534;DHT22;14973;51.460;7.008;2022-09-27T20:23:31;9.80;99.90
27534;DHT22;14973;51.460;7.008;2022-09-27T20:26:00;9.80;99.90
27534;DHT22;14973;51.460;7.008;2022-09-27T20:28:27;9.70;99.90
27534;DHT22;14973;51.460;7.008;2022-09-27T20:31:01;9.70;99.90
27534;DHT22;14973;51.460;7.008;2022-09-27T20:33:26;9.70;99.90
27534;DHT22;14973;51.460;7.008;2022-09-27T20:36:36;9.60;99.90
27534;DHT22;14973;51.460;7.008;2022-09-27T20:39:10;9.60;99.90
27534;DHT22;14973;51.460;7.008;2022-09-27T20:41:41;9.60;99.90
27534;DHT22;14973;51.460;7.008;2022-09-27T20:44:09;9.60;99.90
27534;DHT22;14973;51.460;7.008;2022-09-27T20:46:36;9.60;99.90
27534;DHT22;14973;51.460;7.008;2022-09-27T20:49:04;9.50;99.90
27534;DHT22;14973;51.460;7.008;2022-09-27T20:51:32;9.50;99.90
27534;DHT22;14973;51.460;7.008;2022-09-27T20:53:59;9.50;99.90
27534;DHT22;14973;51.460;7.008;2022-09-27T20:56:36;9.40;99.90
27534;DHT22;14973;51.460;7.008;2022-09-27T20:59:06;9.40;99.90
27534;DHT22;14973;51.460;7.008;2022-09-27T21:01:32;9.50;99.90
27534;DHT22;14973;51.460;7.008;2022-09-27T21:04:03;9.40;99.90
27534;DHT22;14973;51.460;7.008;2022-09-27T21:06:30;9.50;99.90
27534;DHT22;14973;51.460;7.008;2022-09-27T21:08:57;9.50;99.90
27534;DHT22;14973;51.460;7.008;2022-09-27T21:11:24;9.40;99.90
27534;DHT22;14973;51.460;7.008;2022-09-27T21:13:51;9.40;99.90
27534;DHT22;14973;51.460;7.008;2022-09-27T21:16:22;9.40;99.90
27534;DHT22;14973;51.460;7.008;2022-09-27T21:18:52;9.40;99.90
27534;DHT22;14973;51.460;7.008;2022-09-27T21:21:19;9.40;99.90
27534;DHT22;14973;51.460;7.008;2022-09-27T21:23:46;9.40;99.90
27534;DHT22;14973;51.460;7.008;2022-09-27T21:26:17;9.50;99.90
27534;DHT22;14973;51.460;7.008;2022-09-27T21:28:50;9.40;99.90
27534;DHT22;14973;51.460;7.008;2022-09-27T21:31:28;9.40;99.90
27534;DHT22;14973;51.460;7.008;2022-09-27T21:33:55;9.40;99.90
27534;DHT22;14973;51.460;7.008;2022-09-27T21:36:25;9.40;99.90